Terminal Aerodrome Forecast
Issued by NWS Corpus Christi, TX

Home | Current Version | Previous Version | Text Only | Print | Product List | Glossary On
Versions: 1 2 3 4 5 6 7 8 9 10 11 12 13 14 15
000
FTUS44 KCRP 231100 RRA
TAFCRP
TAF
KCRP 231141Z 2312/2412 18004KT 6SM BR SCT015 BKN250
      TEMPO 2312/2313 5SM BR SCT001 BKN015
     FM231500 18006KT P6SM SCT030
     FM231800 13014KT P6SM VCTS SCT035CB BKN100
     FM232300 12015G20KT P6SM SCT050 BKN100
     FM240400 14005KT P6SM BKN050
      TEMPO 2410/2412 5SM BR=

USA.gov is the U.S. government's official web portal to all federal, state and local government web resources and services.